createdAt,value
2022-09-02T00:01:00.646Z,99945.08
2022-09-02T00:03:38.325Z,99943.52
2022-09-02T00:06:08.091Z,99944.48
2022-09-02T00:08:35.019Z,99938.80
2022-09-02T00:11:07.648Z,99930.82
2022-09-02T00:13:37.292Z,99931.57
2022-09-02T00:16:04.744Z,99924.42
2022-09-02T00:18:32.038Z,99923.58
2022-09-02T00:21:01.668Z,99923.13
2022-09-02T00:23:31.089Z,99923.70
2022-09-02T00:26:07.235Z,99920.60
2022-09-02T00:28:48.979Z,99918.54
2022-09-02T00:31:31.314Z,99919.11
2022-09-02T00:34:09.327Z,99919.52
2022-09-02T00:36:36.237Z,99921.14
2022-09-02T00:39:07.700Z,99921.70
2022-09-02T00:41:35.614Z,99922.04
2022-09-02T00:44:14.640Z,99918.71
2022-09-02T00:46:41.379Z,99917.92
2022-09-02T00:49:38.502Z,99918.16
2022-09-02T00:52:07.601Z,99918.02
2022-09-02T00:54:38.834Z,99916.03
2022-09-02T00:57:08.386Z,99911.27
2022-09-02T00:59:41.338Z,99909.52
2022-09-02T01:02:18.483Z,99910.65
2022-09-02T01:04:46.178Z,99907.30
2022-09-02T01:07:15.601Z,99903.34
2022-09-02T01:10:18.781Z,99905.96
2022-09-02T01:12:51.958Z,99899.74
2022-09-02T01:15:35.132Z,99901.56
2022-09-02T01:18:17.610Z,99898.13
2022-09-02T01:21:11.770Z,99900.67
2022-09-02T01:23:49.735Z,99898.83
2022-09-02T01:26:21.103Z,99899.14
2022-09-02T01:28:51.681Z,99896.33
2022-09-02T01:31:33.788Z,99897.05
2022-09-02T01:34:00.527Z,99900.70
2022-09-02T01:36:27.255Z,99899.58
2022-09-02T01:38:56.654Z,99898.28
2022-09-02T01:41:33.409Z,99899.70
2022-09-02T01:44:09.400Z,99902.70
2022-09-02T01:46:42.469Z,99899.73
2022-09-02T01:49:09.421Z,99905.12
2022-09-02T01:51:45.126Z,99900.83
2022-09-02T01:54:12.193Z,99897.87
2022-09-02T01:56:41.655Z,99899.92
2022-09-02T01:59:11.145Z,99896.95
2022-09-02T02:01:45.358Z,99892.58
2022-09-02T02:04:13.524Z,99891.84
2022-09-02T02:06:43.736Z,99888.55
2022-09-02T02:09:11.451Z,99891.50
2022-09-02T02:11:39.294Z,99891.33
2022-09-02T02:14:18.408Z,99892.76
2022-09-02T02:16:55.103Z,99895.11
2022-09-02T02:19:22.008Z,99896.38
2022-09-02T02:21:48.840Z,99899.80
2022-09-02T02:24:20.103Z,99894.83
2022-09-02T02:26:50.284Z,99893.36
2022-09-02T02:29:25.273Z,99894.66
2022-09-02T02:32:07.054Z,99890.48
2022-09-02T02:34:47.300Z,99887.98
2022-09-02T02:37:37.750Z,99889.38
2022-09-02T02:40:19.862Z,99889.33
2022-09-02T02:42:47.594Z,99886.25
2022-09-02T02:45:27.660Z,99882.48
2022-09-02T02:48:11.351Z,99883.84
2022-09-02T02:51:31.973Z,99881.52
2022-09-02T02:53:47.024Z,99882.32
2022-09-02T02:56:18.152Z,99879.61
2022-09-02T02:58:47.008Z,99880.23
2022-09-02T03:01:13.956Z,99878.66
2022-09-02T03:03:44.367Z,99878.02
2022-09-02T03:06:11.652Z,99874.59
2022-09-02T03:08:51.831Z,99873.87
2022-09-02T03:11:37.746Z,99872.11
2022-09-02T03:14:11.793Z,99872.28
2022-09-02T03:16:42.766Z,99873.08
2022-09-02T03:19:14.484Z,99872.36
2022-09-02T03:21:57.595Z,99873.00
2022-09-02T03:24:24.264Z,99874.89
2022-09-02T03:26:53.308Z,99875.20
2022-09-02T03:29:20.308Z,99874.88
2022-09-02T03:31:51.505Z,99876.93
2022-09-02T03:34:21.398Z,99877.02
2022-09-02T03:36:49.164Z,99880.11
2022-09-02T03:39:16.983Z,99882.58
2022-09-02T03:41:49.929Z,99882.31
2022-09-02T03:44:48.794Z,99883.16
2022-09-02T03:47:30.527Z,99889.77
2022-09-02T03:49:57.699Z,99891.13
2022-09-02T03:52:26.022Z,99886.89
2022-09-02T03:54:55.924Z,99884.25
2022-09-02T03:57:26.211Z,99883.05
2022-09-02T04:00:33.882Z,99879.20
2022-09-02T04:03:03.252Z,99883.33
2022-09-02T04:08:26.464Z,99884.41
2022-09-02T04:10:57.261Z,99883.98
2022-09-02T04:13:26.283Z,99883.64
2022-09-02T04:15:59.850Z,99887.77
2022-09-02T04:18:29.873Z,99888.24
2022-09-02T04:20:59.363Z,99893.57
2022-09-02T04:23:47.123Z,99889.16
2022-09-02T04:26:15.849Z,99897.80
2022-09-02T04:28:43.045Z,99897.55
2022-09-02T04:31:20.411Z,99899.30
2022-09-02T04:33:51.214Z,99893.63
2022-09-02T04:36:19.386Z,99892.02
2022-09-02T04:38:48.828Z,99893.44
2022-09-02T04:41:19.421Z,99896.48
2022-09-02T04:43:50.683Z,99894.48
2022-09-02T04:46:19.212Z,99895.45
2022-09-02T04:48:58.139Z,99898.06
2022-09-02T04:51:32.307Z,99890.18
2022-09-02T04:54:10.971Z,99892.80
2022-09-02T04:56:38.865Z,99897.02
2022-09-02T04:59:06.685Z,99896.22
2022-09-02T05:01:36.129Z,99898.36
2022-09-02T05:07:17.943Z,99898.66
2022-09-02T05:09:50.424Z,99900.55
2022-09-02T05:12:17.756Z,99898.99
2022-09-02T05:14:56.908Z,99898.70
2022-09-02T05:17:28.997Z,99892.58
2022-09-02T05:19:57.098Z,99890.36
2022-09-02T05:22:25.281Z,99892.30
2022-09-02T05:24:55.078Z,99895.66
2022-09-02T05:27:49.969Z,99892.89
2022-09-02T05:30:16.655Z,99892.83
2022-09-02T05:32:43.403Z,99895.05
2022-09-02T05:35:21.030Z,99893.70
2022-09-02T05:37:50.291Z,99891.77
2022-09-02T05:40:22.483Z,99892.48
2022-09-02T05:42:58.901Z,99889.13
2022-09-02T05:45:48.303Z,99891.67
2022-09-02T05:48:34.747Z,99887.84
2022-09-02T05:51:08.201Z,99890.73
2022-09-02T05:53:41.026Z,99889.68
2022-09-02T05:56:07.687Z,99885.37
2022-09-02T05:58:34.685Z,99884.00
2022-09-02T06:01:43.299Z,99882.47
2022-09-02T06:04:28.445Z,99882.05
2022-09-02T06:07:00.509Z,99881.23
2022-09-02T06:09:29.083Z,99884.80
2022-09-02T06:11:56.031Z,99885.04
2022-09-02T06:14:30.235Z,99879.50
2022-09-02T06:17:18.910Z,99880.90
2022-09-02T06:19:48.616Z,99877.13
2022-09-02T06:22:23.552Z,99877.02
2022-09-02T06:24:51.899Z,99880.42
2022-09-02T06:27:21.215Z,99880.56
2022-09-02T06:29:50.405Z,99880.16
2022-09-02T06:32:20.033Z,99883.73
2022-09-02T06:34:48.314Z,99884.21
2022-09-02T06:37:15.197Z,99887.48
2022-09-02T06:39:44.264Z,99888.48
2022-09-02T06:42:15.956Z,99890.09
2022-09-02T06:44:57.194Z,99889.05
2022-09-02T06:47:37.407Z,99888.81
2022-09-02T06:50:09.094Z,99889.44
2022-09-02T06:52:40.622Z,99890.86
2022-09-02T06:55:12.834Z,99892.37
2022-09-02T06:57:45.057Z,99895.16
2022-09-02T07:00:13.117Z,99897.39
2022-09-02T07:02:40.815Z,99895.23
2022-09-02T07:05:09.022Z,99895.71
2022-09-02T07:07:37.221Z,99897.05
2022-09-02T07:10:09.248Z,99894.98
2022-09-02T07:12:44.491Z,99899.52
2022-09-02T07:18:09.426Z,99900.67
2022-09-02T07:20:36.355Z,99903.04
2022-09-02T07:23:04.051Z,99903.58
2022-09-02T07:25:32.685Z,99905.58
2022-09-02T07:28:02.271Z,99908.59
2022-09-02T07:30:31.336Z,99912.32
2022-09-02T07:33:04.684Z,99915.41
2022-09-02T07:35:36.313Z,99916.43
2022-09-02T07:38:21.283Z,99919.11
2022-09-02T07:40:50.191Z,99924.48
2022-09-02T07:43:34.524Z,99924.23
2022-09-02T07:46:02.275Z,99923.26
2022-09-02T07:48:29.708Z,99925.00
2022-09-02T07:50:57.164Z,99921.88
2022-09-02T07:53:27.153Z,99922.84
2022-09-02T07:55:58.058Z,99926.83
2022-09-02T07:58:25.784Z,99928.45
2022-09-02T08:00:54.769Z,99929.02
2022-09-02T08:03:26.460Z,99931.17
2022-09-02T08:05:56.800Z,99931.73
2022-09-02T08:08:25.763Z,99931.13
2022-09-02T08:10:53.746Z,99931.73
2022-09-02T08:13:21.244Z,99929.34
2022-09-02T08:15:58.683Z,99926.84
2022-09-02T08:18:28.743Z,99928.22
2022-09-02T08:20:55.364Z,99929.20
2022-09-02T08:23:37.954Z,99933.31
2022-09-02T08:26:09.487Z,99933.42
2022-09-02T08:28:36.139Z,99936.88
2022-09-02T08:31:07.035Z,99937.70
2022-09-02T08:33:34.190Z,99935.23
2022-09-02T08:36:05.169Z,99930.43
2022-09-02T08:38:32.566Z,99927.29
2022-09-02T08:41:02.402Z,99920.27
2022-09-02T08:43:58.698Z,99921.23
2022-09-02T08:46:32.501Z,99925.30
2022-09-02T08:49:31.726Z,99925.84
2022-09-02T08:52:35.428Z,99924.95
2022-09-02T08:55:16.259Z,99930.83
2022-09-02T08:58:31.238Z,99929.48
2022-09-02T09:09:42.106Z,99923.71
2022-09-02T09:13:14.204Z,99925.14
2022-09-02T09:16:05.670Z,99925.06
2022-09-02T09:19:09.705Z,99926.10
2022-09-02T09:25:11.174Z,99927.20
2022-09-02T09:27:38.106Z,99926.96
2022-09-02T09:30:12.961Z,99929.65
2022-09-02T09:32:56.458Z,99933.38
2022-09-02T09:35:23.834Z,99927.70
2022-09-02T09:37:56.923Z,99929.02
2022-09-02T09:40:32.657Z,99923.39
2022-09-02T09:43:14.387Z,99923.89
2022-09-02T09:45:43.779Z,99922.41
2022-09-02T09:48:10.808Z,99921.45
2022-09-02T09:51:16.981Z,99915.98
2022-09-02T09:59:48.935Z,99915.20
2022-09-02T10:09:06.003Z,99911.98
2022-09-02T10:20:48.576Z,99903.16
2022-09-02T10:31:51.414Z,99902.69
2022-09-02T10:34:18.351Z,99901.02
2022-09-02T10:41:02.344Z,99893.57
2022-09-02T10:44:36.219Z,99892.77
2022-09-02T10:47:15.145Z,99893.40
2022-09-02T10:49:47.798Z,99887.46
2022-09-02T10:52:36.699Z,99892.02
2022-09-02T10:55:28.133Z,99891.63
2022-09-02T10:58:35.247Z,99889.37
2022-09-02T11:01:12.853Z,99887.51
2022-09-02T11:03:43.486Z,99885.11
2022-09-02T11:06:18.509Z,99885.92
2022-09-02T11:08:45.002Z,99888.23
2022-09-02T11:11:11.832Z,99886.34
2022-09-02T11:13:52.467Z,99884.83
2022-09-02T11:16:24.771Z,99884.26
2022-09-02T11:19:00.331Z,99888.70
2022-09-02T11:21:33.782Z,99887.50
2022-09-02T11:24:29.172Z,99886.84
2022-09-02T11:27:58.871Z,99883.66
2022-09-02T11:30:37.437Z,99878.20
2022-09-02T11:33:17.359Z,99878.52
2022-09-02T11:36:04.221Z,99876.33
2022-09-02T11:38:44.472Z,99874.96
2022-09-02T11:44:03.639Z,99873.20
2022-09-02T11:46:39.428Z,99870.52
2022-09-02T11:49:14.397Z,99868.69
2022-09-02T11:51:49.704Z,99862.46
2022-09-02T11:54:19.302Z,99866.34
2022-09-02T11:56:51.883Z,99866.77
2022-09-02T11:59:27.131Z,99866.86
2022-09-02T12:01:56.537Z,99869.14
2022-09-02T12:07:58.643Z,99868.69
2022-09-02T12:10:56.344Z,99868.66
2022-09-02T12:16:38.120Z,99863.52
2022-09-02T12:19:25.539Z,99866.60
2022-09-02T12:22:11.168Z,99865.12
2022-09-02T12:25:00.166Z,99869.71
2022-09-02T12:27:33.808Z,99868.11
2022-09-02T12:30:13.620Z,99867.44
2022-09-02T12:32:46.602Z,99865.80
2022-09-02T12:35:52.749Z,99866.40
2022-09-02T12:39:08.015Z,99860.83
2022-09-02T12:41:42.892Z,99856.83
2022-09-02T12:47:31.700Z,99860.13
2022-09-02T12:50:01.204Z,99857.75
2022-09-02T12:52:36.785Z,99857.05
2022-09-02T12:55:15.811Z,99859.76
2022-09-02T12:57:45.293Z,99858.09
2022-09-02T13:00:19.705Z,99857.53
2022-09-02T13:06:22.655Z,99863.11
2022-09-02T13:08:49.506Z,99865.70
2022-09-02T13:11:34.476Z,99862.14
2022-09-02T13:14:16.344Z,99862.27
2022-09-02T13:17:35.039Z,99862.88
2022-09-02T13:20:26.536Z,99860.32
2022-09-02T13:23:05.682Z,99857.48
2022-09-02T13:25:44.624Z,99854.36
2022-09-02T13:28:18.777Z,99855.10
2022-09-02T13:31:24.247Z,99856.48
2022-09-02T13:34:11.339Z,99857.46
2022-09-02T13:36:55.690Z,99859.27
2022-09-02T13:39:27.120Z,99858.06
2022-09-02T13:41:54.563Z,99853.13
2022-09-02T13:44:47.670Z,99858.27
2022-09-02T13:47:15.731Z,99855.90
2022-09-02T13:49:45.081Z,99856.40
2022-09-02T13:52:17.166Z,99854.09
2022-09-02T13:54:54.338Z,99859.84
2022-09-02T13:57:26.530Z,99853.16
2022-09-02T13:59:58.479Z,99850.60
2022-09-02T14:02:30.134Z,99843.57
2022-09-02T14:04:56.835Z,99844.26
2022-09-02T14:07:28.082Z,99847.50
2022-09-02T14:10:02.694Z,99848.86
2022-09-02T14:12:34.356Z,99846.79
2022-09-02T14:15:01.761Z,99846.88
2022-09-02T14:17:31.822Z,99845.68
2022-09-02T14:20:30.692Z,99851.67
2022-09-02T14:23:02.999Z,99855.93
2022-09-02T14:26:11.018Z,99861.50
2022-09-02T14:28:40.082Z,99861.38
2022-09-02T14:31:33.519Z,99861.77
2022-09-02T14:34:09.309Z,99859.41
2022-09-02T14:36:48.567Z,99865.22
2022-09-02T14:39:30.442Z,99860.59
2022-09-02T14:42:21.736Z,99854.67
2022-09-02T14:44:49.894Z,99858.23
2022-09-02T14:47:25.691Z,99858.08
2022-09-02T14:53:27.917Z,99851.71
2022-09-02T14:56:03.461Z,99854.74
2022-09-02T15:01:57.529Z,99854.11
2022-09-02T15:04:46.845Z,99854.60
2022-09-02T15:07:57.776Z,99855.31
2022-09-02T15:10:28.211Z,99856.27
2022-09-02T15:12:56.925Z,99852.14
2022-09-02T15:15:35.181Z,99852.31
2022-09-02T15:18:15.776Z,99850.64
2022-09-02T15:21:04.919Z,99847.65
2022-09-02T15:23:51.568Z,99849.58
2022-09-02T15:26:18.071Z,99851.24
2022-09-02T15:32:08.509Z,99854.14
2022-09-02T15:34:39.296Z,99849.59
2022-09-02T15:37:58.315Z,99856.59
2022-09-02T15:40:39.683Z,99855.48
2022-09-02T15:43:23.857Z,99854.38
2022-09-02T15:45:56.136Z,99858.63
2022-09-02T15:48:34.022Z,99861.74
2022-09-02T15:51:18.023Z,99859.66
2022-09-02T15:54:32.652Z,99859.80
2022-09-02T15:57:11.920Z,99857.95
2022-09-02T16:02:59.960Z,99855.80
2022-09-02T16:05:47.336Z,99857.36
2022-09-02T16:08:23.549Z,99858.09
2022-09-02T16:11:12.768Z,99859.14
2022-09-02T16:14:08.824Z,99859.52
2022-09-02T16:16:36.888Z,99860.41
2022-09-02T16:20:10.343Z,99860.91
2022-09-02T16:23:01.924Z,99855.20
2022-09-02T16:25:32.757Z,99854.65
2022-09-02T16:28:01.641Z,99857.21
2022-09-02T16:30:33.542Z,99858.19
2022-09-02T16:33:00.120Z,99855.30
2022-09-02T16:35:47.161Z,99857.55
2022-09-02T16:38:15.147Z,99861.94
2022-09-02T16:40:55.266Z,99864.67
2022-09-02T16:44:44.145Z,99872.11
2022-09-02T16:46:58.781Z,99878.20
2022-09-02T16:49:26.875Z,99875.91
2022-09-02T16:51:58.006Z,99875.13
2022-09-02T16:54:31.269Z,99880.25
2022-09-02T16:56:59.300Z,99880.42
2022-09-02T16:59:31.836Z,99881.77
2022-09-02T17:02:01.000Z,99889.02
2022-09-02T17:04:30.425Z,99890.73
2022-09-02T17:06:59.609Z,99887.17
2022-09-02T17:09:26.250Z,99888.95
2022-09-02T17:11:53.849Z,99893.34
2022-09-02T17:14:21.702Z,99894.95
2022-09-02T17:16:50.028Z,99894.66
2022-09-02T17:19:20.687Z,99894.17
2022-09-02T17:21:53.774Z,99892.49
2022-09-02T17:24:24.180Z,99894.27
2022-09-02T17:27:02.090Z,99894.77
2022-09-02T17:32:33.327Z,99901.89
2022-09-02T17:35:09.825Z,99904.92
2022-09-02T17:37:43.284Z,99910.36
2022-09-02T17:40:42.363Z,99913.15
2022-09-02T17:43:19.469Z,99916.34
2022-09-02T17:45:54.626Z,99920.59
2022-09-02T17:48:37.233Z,99920.34
2022-09-02T17:51:27.396Z,99926.95
2022-09-02T17:53:57.022Z,99929.27
2022-09-02T17:56:46.345Z,99930.46
2022-09-02T17:59:32.688Z,99935.72
2022-09-02T18:02:12.900Z,99943.21
2022-09-02T18:04:42.025Z,99945.62
2022-09-02T18:07:21.027Z,99948.34
2022-09-02T18:09:53.635Z,99954.33
2022-09-02T18:12:20.256Z,99958.62
2022-09-02T18:14:53.244Z,99959.89
2022-09-02T18:17:36.290Z,99962.92
2022-09-02T18:20:36.094Z,99968.50
2022-09-02T18:23:09.315Z,99973.98
2022-09-02T18:25:56.162Z,99976.39
2022-09-02T18:28:43.990Z,99975.77
2022-09-02T18:31:30.199Z,99981.34
2022-09-02T18:34:15.782Z,99980.21
2022-09-02T18:37:05.362Z,99984.35
2022-09-02T18:39:37.683Z,99986.45
2022-09-02T18:42:17.099Z,99986.77
2022-09-02T18:44:45.622Z,99986.68
2022-09-02T18:47:15.475Z,99987.48
2022-09-02T18:50:05.320Z,99988.53
2022-09-02T18:52:36.202Z,99989.96
2022-09-02T18:55:18.728Z,99991.55
2022-09-02T18:57:56.415Z,99984.31
2022-09-02T19:00:28.016Z,99985.20
2022-09-02T19:03:05.107Z,99982.25
2022-09-02T19:05:41.723Z,99984.33
2022-09-02T19:08:32.681Z,99985.36
2022-09-02T19:11:06.588Z,99985.45
2022-09-02T19:13:48.454Z,99986.73
2022-09-02T19:16:21.695Z,99986.02
2022-09-02T19:18:52.190Z,99989.13
2022-09-02T19:21:40.067Z,99992.79
2022-09-02T19:24:09.960Z,99991.36
2022-09-02T19:26:40.558Z,100000.73
2022-09-02T19:29:08.883Z,100001.92
2022-09-02T19:31:39.389Z,99999.63
2022-09-02T19:34:10.005Z,100002.33
2022-09-02T19:36:41.764Z,100002.80
2022-09-02T19:39:14.863Z,100002.09
2022-09-02T19:41:49.093Z,100001.05
2022-09-02T19:44:19.526Z,100004.80
2022-09-02T19:49:40.546Z,100004.71
2022-09-02T19:52:18.372Z,100004.64
2022-09-02T19:55:08.231Z,100012.35
2022-09-02T19:57:51.052Z,100014.27
2022-09-02T20:00:36.391Z,100012.36
2022-09-02T20:03:06.107Z,100011.25
2022-09-02T20:08:30.420Z,100017.06
2022-09-02T20:10:59.509Z,100018.33
2022-09-02T20:13:27.515Z,100021.83
2022-09-02T20:15:54.801Z,100027.41
2022-09-02T20:18:22.975Z,100032.66
2022-09-02T20:20:51.450Z,100030.52
2022-09-02T20:23:21.535Z,100037.20
2022-09-02T20:26:07.074Z,100034.81
2022-09-02T20:28:45.665Z,100036.88
2022-09-02T20:31:21.461Z,100036.01
2022-09-02T20:34:00.038Z,100034.57
2022-09-02T20:36:33.494Z,100029.89
2022-09-02T20:39:06.515Z,100033.94
2022-09-02T20:41:51.337Z,100033.30
2022-09-02T20:44:26.109Z,100035.70
2022-09-02T20:47:24.324Z,100033.94
2022-09-02T20:49:53.716Z,100032.35
2022-09-02T20:52:20.125Z,100032.74
2022-09-02T20:54:47.451Z,100035.54
2022-09-02T20:57:15.001Z,100041.27
2022-09-02T20:59:44.621Z,100045.48
2022-09-02T21:02:13.033Z,100051.20
2022-09-02T21:04:54.764Z,100048.36
2022-09-02T21:07:21.232Z,100044.63
2022-09-02T21:09:55.096Z,100044.38
2022-09-02T21:12:22.596Z,100043.26
2022-09-02T21:15:19.445Z,100045.57
2022-09-02T21:17:49.048Z,100046.20
2022-09-02T21:20:18.880Z,100044.84
2022-09-02T21:22:52.684Z,100044.36
2022-09-02T21:25:29.400Z,100049.77
2022-09-02T21:28:14.960Z,100047.15
2022-09-02T21:30:45.374Z,100051.13
2022-09-02T21:33:13.538Z,100053.29
2022-09-02T21:35:50.202Z,100055.42
2022-09-02T21:38:20.136Z,100057.98
2022-09-02T21:41:05.303Z,100063.48
2022-09-02T21:43:55.893Z,100065.70
2022-09-02T21:46:25.964Z,100061.80
2022-09-02T21:48:52.881Z,100060.21
2022-09-02T21:51:26.078Z,100058.78
2022-09-02T21:53:53.265Z,100061.81
2022-09-02T21:56:19.786Z,100065.63
2022-09-02T21:59:04.605Z,100065.86
2022-09-02T22:01:39.985Z,100069.14
2022-09-02T22:04:23.139Z,100069.68
2022-09-02T22:06:57.408Z,100067.69
2022-09-02T22:09:29.478Z,100065.86
2022-09-02T22:12:04.602Z,100067.70
2022-09-02T22:14:32.433Z,100067.45
2022-09-02T22:17:03.891Z,100069.70
2022-09-02T22:19:38.284Z,100067.45
2022-09-02T22:22:16.147Z,100068.80
2022-09-02T22:24:50.120Z,100066.02
2022-09-02T22:27:19.593Z,100068.25
2022-09-02T22:29:57.312Z,100067.77
2022-09-02T22:32:33.867Z,100070.73
2022-09-02T22:35:27.285Z,100068.10
2022-09-02T22:38:05.480Z,100063.73
2022-09-02T22:40:38.370Z,100058.71
2022-09-02T22:43:09.749Z,100059.98
2022-09-02T22:45:57.098Z,100059.58
2022-09-02T22:48:52.340Z,100059.11
2022-09-02T22:51:41.167Z,100058.55
2022-09-02T22:54:07.715Z,100061.34
2022-09-02T22:56:44.286Z,100062.94
2022-09-02T22:59:29.541Z,100063.58
2022-09-02T23:02:22.634Z,100063.10
2022-09-02T23:04:49.271Z,100063.59
2022-09-02T23:07:15.998Z,100065.89
2022-09-02T23:09:43.340Z,100066.13
2022-09-02T23:12:19.320Z,100063.73
2022-09-02T23:14:52.725Z,100065.17
2022-09-02T23:17:22.420Z,100062.94
2022-09-02T23:19:55.912Z,100062.70
2022-09-02T23:22:37.320Z,100059.83
2022-09-02T23:25:22.360Z,100060.47
2022-09-02T23:28:04.361Z,100061.98
2022-09-02T23:30:31.302Z,100059.49
2022-09-02T23:33:27.231Z,100059.50
2022-09-02T23:36:11.162Z,100062.85
2022-09-02T23:38:56.449Z,100062.77
2022-09-02T23:41:23.229Z,100062.14
2022-09-02T23:43:50.956Z,100059.20
2022-09-02T23:46:26.745Z,100058.64
2022-09-02T23:49:04.821Z,100060.55
2022-09-02T23:51:51.555Z,100063.00
2022-09-02T23:54:33.423Z,100063.63
2022-09-02T23:57:14.632Z,100060.77
2022-09-02T23:59:56.444Z,100061.10
